sensor_id;sensor_type;location;lat;lon;timestamp;temperature;humidity
25877;DHT22;13692;47.480;19.216;2024-03-22T00:02:15;9.80;99.90
25877;DHT22;13692;47.480;19.216;2024-03-22T00:04:41;9.70;99.90
25877;DHT22;13692;47.480;19.216;2024-03-22T00:07:07;9.70;99.90
25877;DHT22;13692;47.480;19.216;2024-03-22T00:09:33;9.70;99.90
25877;DHT22;13692;47.480;19.216;2024-03-22T00:11:59;9.70;99.90
25877;DHT22;13692;47.480;19.216;2024-03-22T00:14:25;9.70;99.90
25877;DHT22;13692;47.480;19.216;2024-03-22T00:16:51;9.70;99.90
25877;DHT22;13692;47.480;19.216;2024-03-22T00:19:17;9.70;99.90
25877;DHT22;13692;47.480;19.216;2024-03-22T00:21:43;9.70;99.90
25877;DHT22;13692;47.480;19.216;2024-03-22T00:24:09;9.70;99.90
25877;DHT22;13692;47.480;19.216;2024-03-22T00:26:35;9.70;99.90
25877;DHT22;13692;47.480;19.216;2024-03-22T00:29:01;9.60;99.90
25877;DHT22;13692;47.480;19.216;2024-03-22T00:31:27;9.70;99.90
25877;DHT22;13692;47.480;19.216;2024-03-22T00:33:53;9.70;99.90
25877;DHT22;13692;47.480;19.216;2024-03-22T00:36:19;9.70;99.90
25877;DHT22;13692;47.480;19.216;2024-03-22T00:38:46;9.60;99.90
25877;DHT22;13692;47.480;19.216;2024-03-22T00:41:12;9.70;99.90
25877;DHT22;13692;47.480;19.216;2024-03-22T00:43:38;9.70;99.90
25877;DHT22;13692;47.480;19.216;2024-03-22T00:46:04;9.70;99.90
25877;DHT22;13692;47.480;19.216;2024-03-22T00:48:30;9.70;99.90
25877;DHT22;13692;47.480;19.216;2024-03-22T00:50:56;9.70;99.90
25877;DHT22;13692;47.480;19.216;2024-03-22T00:53:22;9.70;99.90
25877;DHT22;13692;47.480;19.216;2024-03-22T00:55:48;9.80;99.90
25877;DHT22;13692;47.480;19.216;2024-03-22T00:58:20;9.80;99.90
25877;DHT22;13692;47.480;19.216;2024-03-22T01:00:46;9.80;99.90
25877;DHT22;13692;47.480;19.216;2024-03-22T01:03:12;9.80;99.90
25877;DHT22;13692;47.480;19.216;2024-03-22T01:05:38;9.90;99.90
25877;DHT22;13692;47.480;19.216;2024-03-22T01:08:06;9.90;99.90
25877;DHT22;13692;47.480;19.216;2024-03-22T01:10:33;9.90;99.90
25877;DHT22;13692;47.480;19.216;2024-03-22T01:12:59;9.90;99.90
25877;DHT22;13692;47.480;19.216;2024-03-22T01:15:26;9.90;99.90
25877;DHT22;13692;47.480;19.216;2024-03-22T01:17:53;9.90;99.90
25877;DHT22;13692;47.480;19.216;2024-03-22T01:20:19;9.90;99.90
25877;DHT22;13692;47.480;19.216;2024-03-22T01:22:45;9.90;99.90
25877;DHT22;13692;47.480;19.216;2024-03-22T01:25:11;9.90;99.90
25877;DHT22;13692;47.480;19.216;2024-03-22T01:27:37;9.80;99.90
25877;DHT22;13692;47.480;19.216;2024-03-22T01:30:03;9.80;99.90
25877;DHT22;13692;47.480;19.216;2024-03-22T01:32:29;9.80;99.90
25877;DHT22;13692;47.480;19.216;2024-03-22T01:34:55;9.80;99.90
25877;DHT22;13692;47.480;19.216;2024-03-22T01:37:21;9.80;99.90
25877;DHT22;13692;47.480;19.216;2024-03-22T01:39:47;9.80;99.90
25877;DHT22;13692;47.480;19.216;2024-03-22T01:42:12;9.80;99.90
25877;DHT22;13692;47.480;19.216;2024-03-22T01:44:38;9.80;99.90
25877;DHT22;13692;47.480;19.216;2024-03-22T01:47:04;9.80;99.90
25877;DHT22;13692;47.480;19.216;2024-03-22T01:49:30;9.80;99.90
25877;DHT22;13692;47.480;19.216;2024-03-22T01:51:57;9.80;99.90
25877;DHT22;13692;47.480;19.216;2024-03-22T01:54:23;9.80;99.90
25877;DHT22;13692;47.480;19.216;2024-03-22T01:56:49;9.80;99.90
25877;DHT22;13692;47.480;19.216;2024-03-22T01:59:15;9.80;99.90
25877;DHT22;13692;47.480;19.216;2024-03-22T02:01:42;9.80;99.90
25877;DHT22;13692;47.480;19.216;2024-03-22T02:04:08;9.90;99.90
25877;DHT22;13692;47.480;19.216;2024-03-22T02:06:35;9.90;99.90
25877;DHT22;13692;47.480;19.216;2024-03-22T02:09:01;9.90;99.90
25877;DHT22;13692;47.480;19.216;2024-03-22T02:11:27;9.90;99.90
25877;DHT22;13692;47.480;19.216;2024-03-22T02:13:54;9.90;99.90
25877;DHT22;13692;47.480;19.216;2024-03-22T02:16:20;9.90;99.90
25877;DHT22;13692;47.480;19.216;2024-03-22T02:18:46;9.90;99.90
25877;DHT22;13692;47.480;19.216;2024-03-22T02:21:12;9.90;99.90
25877;DHT22;13692;47.480;19.216;2024-03-22T02:23:39;9.90;99.90
25877;DHT22;13692;47.480;19.216;2024-03-22T02:26:06;9.90;99.90
25877;DHT22;13692;47.480;19.216;2024-03-22T02:28:33;9.90;99.90
25877;DHT22;13692;47.480;19.216;2024-03-22T02:31:00;9.90;99.90
25877;DHT22;13692;47.480;19.216;2024-03-22T02:33:26;9.90;99.90
25877;DHT22;13692;47.480;19.216;2024-03-22T02:35:52;9.90;99.90
25877;DHT22;13692;47.480;19.216;2024-03-22T02:38:18;9.90;99.90
25877;DHT22;13692;47.480;19.216;2024-03-22T02:40:45;9.90;99.90
25877;DHT22;13692;47.480;19.216;2024-03-22T02:43:12;9.90;99.90
25877;DHT22;13692;47.480;19.216;2024-03-22T02:45:38;9.90;99.90
25877;DHT22;13692;47.480;19.216;2024-03-22T02:48:04;9.90;99.90
25877;DHT22;13692;47.480;19.216;2024-03-22T02:50:34;9.80;99.90
25877;DHT22;13692;47.480;19.216;2024-03-22T02:53:01;9.90;99.90
25877;DHT22;13692;47.480;19.216;2024-03-22T02:55:27;9.80;99.90
25877;DHT22;13692;47.480;19.216;2024-03-22T02:57:53;9.80;99.90
25877;DHT22;13692;47.480;19.216;2024-03-22T03:00:19;9.70;99.90
25877;DHT22;13692;47.480;19.216;2024-03-22T03:02:48;9.60;99.90
25877;DHT22;13692;47.480;19.216;2024-03-22T03:05:14;9.60;99.90
25877;DHT22;13692;47.480;19.216;2024-03-22T03:07:40;9.70;99.90
25877;DHT22;13692;47.480;19.216;2024-03-22T03:10:06;9.70;99.90
25877;DHT22;13692;47.480;19.216;2024-03-22T03:12:33;9.80;99.90
25877;DHT22;13692;47.480;19.216;2024-03-22T03:14:59;9.80;99.90
25877;DHT22;13692;47.480;19.216;2024-03-22T03:17:25;9.70;99.90
25877;DHT22;13692;47.480;19.216;2024-03-22T03:19:50;9.80;99.90
25877;DHT22;13692;47.480;19.216;2024-03-22T03:22:16;9.70;99.90
25877;DHT22;13692;47.480;19.216;2024-03-22T03:24:43;9.80;99.90
25877;DHT22;13692;47.480;19.216;2024-03-22T03:27:09;9.80;99.90
25877;DHT22;13692;47.480;19.216;2024-03-22T03:29:36;9.80;99.90
25877;DHT22;13692;47.480;19.216;2024-03-22T03:32:02;9.80;99.90
25877;DHT22;13692;47.480;19.216;2024-03-22T03:34:28;9.80;99.90
25877;DHT22;13692;47.480;19.216;2024-03-22T03:36:53;9.80;99.90
25877;DHT22;13692;47.480;19.216;2024-03-22T03:39:19;9.80;99.90
25877;DHT22;13692;47.480;19.216;2024-03-22T03:41:46;9.80;99.90
25877;DHT22;13692;47.480;19.216;2024-03-22T03:44:12;9.70;99.90
25877;DHT22;13692;47.480;19.216;2024-03-22T03:46:38;9.70;99.90
25877;DHT22;13692;47.480;19.216;2024-03-22T03:49:03;9.70;99.90
25877;DHT22;13692;47.480;19.216;2024-03-22T03:51:29;9.70;99.90
25877;DHT22;13692;47.480;19.216;2024-03-22T03:53:55;9.70;99.90
25877;DHT22;13692;47.480;19.216;2024-03-22T03:56:21;9.70;99.90
25877;DHT22;13692;47.480;19.216;2024-03-22T03:58:47;9.70;99.90
25877;DHT22;13692;47.480;19.216;2024-03-22T04:01:13;9.70;99.90
25877;DHT22;13692;47.480;19.216;2024-03-22T04:03:39;9.70;99.90
25877;DHT22;13692;47.480;19.216;2024-03-22T04:06:05;9.70;99.90
25877;DHT22;13692;47.480;19.216;2024-03-22T04:08:31;9.70;99.90
25877;DHT22;13692;47.480;19.216;2024-03-22T04:10:57;9.70;99.90
25877;DHT22;13692;47.480;19.216;2024-03-22T04:13:24;9.70;99.90
25877;DHT22;13692;47.480;19.216;2024-03-22T04:15:51;9.70;99.90
25877;DHT22;13692;47.480;19.216;2024-03-22T04:18:17;9.70;99.90
25877;DHT22;13692;47.480;19.216;2024-03-22T04:20:43;9.70;99.90
25877;DHT22;13692;47.480;19.216;2024-03-22T04:23:11;9.70;99.90
25877;DHT22;13692;47.480;19.216;2024-03-22T04:25:37;9.80;99.90
25877;DHT22;13692;47.480;19.216;2024-03-22T04:28:03;9.80;99.90
25877;DHT22;13692;47.480;19.216;2024-03-22T04:30:29;9.80;99.90
25877;DHT22;13692;47.480;19.216;2024-03-22T04:32:55;9.80;99.90
25877;DHT22;13692;47.480;19.216;2024-03-22T04:35:21;9.80;99.90
25877;DHT22;13692;47.480;19.216;2024-03-22T04:37:47;9.80;99.90
25877;DHT22;13692;47.480;19.216;2024-03-22T04:40:13;9.80;99.90
25877;DHT22;13692;47.480;19.216;2024-03-22T04:42:39;9.80;99.90
25877;DHT22;13692;47.480;19.216;2024-03-22T04:45:05;9.70;99.90
25877;DHT22;13692;47.480;19.216;2024-03-22T04:47:31;9.70;99.90
25877;DHT22;13692;47.480;19.216;2024-03-22T04:49:56;9.70;99.90
25877;DHT22;13692;47.480;19.216;2024-03-22T04:52:22;9.70;99.90
25877;DHT22;13692;47.480;19.216;2024-03-22T04:54:48;9.70;99.90
25877;DHT22;13692;47.480;19.216;2024-03-22T04:57:15;9.70;99.90
25877;DHT22;13692;47.480;19.216;2024-03-22T04:59:41;9.70;99.90
25877;DHT22;13692;47.480;19.216;2024-03-22T05:02:07;9.70;99.90
25877;DHT22;13692;47.480;19.216;2024-03-22T05:04:32;9.70;99.90
25877;DHT22;13692;47.480;19.216;2024-03-22T05:06:58;9.80;99.90
25877;DHT22;13692;47.480;19.216;2024-03-22T05:09:24;9.70;99.90
25877;DHT22;13692;47.480;19.216;2024-03-22T05:11:50;9.70;99.90
25877;DHT22;13692;47.480;19.216;2024-03-22T05:14:19;9.80;99.90
25877;DHT22;13692;47.480;19.216;2024-03-22T05:16:45;9.80;99.90
25877;DHT22;13692;47.480;19.216;2024-03-22T05:19:11;9.80;99.90
25877;DHT22;13692;47.480;19.216;2024-03-22T05:21:37;9.80;99.90
25877;DHT22;13692;47.480;19.216;2024-03-22T05:24:02;9.90;99.90
25877;DHT22;13692;47.480;19.216;2024-03-22T05:26:28;9.80;99.90
25877;DHT22;13692;47.480;19.216;2024-03-22T05:28:57;9.80;99.90
25877;DHT22;13692;47.480;19.216;2024-03-22T05:31:24;9.90;99.90
25877;DHT22;13692;47.480;19.216;2024-03-22T05:33:50;9.90;99.90
25877;DHT22;13692;47.480;19.216;2024-03-22T05:36:15;9.90;99.90
25877;DHT22;13692;47.480;19.216;2024-03-22T05:38:41;10.00;99.90
25877;DHT22;13692;47.480;19.216;2024-03-22T05:41:07;10.00;99.90
25877;DHT22;13692;47.480;19.216;2024-03-22T05:43:34;10.00;99.90
25877;DHT22;13692;47.480;19.216;2024-03-22T05:46:00;10.10;99.90
25877;DHT22;13692;47.480;19.216;2024-03-22T05:48:25;10.10;99.90
25877;DHT22;13692;47.480;19.216;2024-03-22T05:50:51;10.00;99.90
25877;DHT22;13692;47.480;19.216;2024-03-22T05:53:18;10.10;99.90
25877;DHT22;13692;47.480;19.216;2024-03-22T05:55:44;10.10;99.90
25877;DHT22;13692;47.480;19.216;2024-03-22T05:58:10;10.20;99.90
25877;DHT22;13692;47.480;19.216;2024-03-22T06:00:36;10.30;99.90
25877;DHT22;13692;47.480;19.216;2024-03-22T06:03:02;10.20;99.90
25877;DHT22;13692;47.480;19.216;2024-03-22T06:05:28;10.20;99.90
25877;DHT22;13692;47.480;19.216;2024-03-22T06:07:54;10.30;99.90
25877;DHT22;13692;47.480;19.216;2024-03-22T06:10:20;10.40;99.90
25877;DHT22;13692;47.480;19.216;2024-03-22T06:12:46;10.50;99.90
25877;DHT22;13692;47.480;19.216;2024-03-22T06:15:13;10.60;99.90
25877;DHT22;13692;47.480;19.216;2024-03-22T06:17:39;10.70;99.90
25877;DHT22;13692;47.480;19.216;2024-03-22T06:20:05;10.80;99.90
25877;DHT22;13692;47.480;19.216;2024-03-22T06:22:31;10.90;99.90
25877;DHT22;13692;47.480;19.216;2024-03-22T06:24:57;11.10;99.90
25877;DHT22;13692;47.480;19.216;2024-03-22T06:27:24;11.40;99.90
25877;DHT22;13692;47.480;19.216;2024-03-22T06:29:50;11.60;99.90
25877;DHT22;13692;47.480;19.216;2024-03-22T06:32:16;11.90;99.90
25877;DHT22;13692;47.480;19.216;2024-03-22T06:34:42;12.20;99.90
25877;DHT22;13692;47.480;19.216;2024-03-22T06:37:08;12.50;99.90
25877;DHT22;13692;47.480;19.216;2024-03-22T06:39:34;12.80;99.90
25877;DHT22;13692;47.480;19.216;2024-03-22T06:41:59;13.10;99.90
25877;DHT22;13692;47.480;19.216;2024-03-22T06:44:25;13.50;99.90
25877;DHT22;13692;47.480;19.216;2024-03-22T06:46:52;13.90;99.90
25877;DHT22;13692;47.480;19.216;2024-03-22T06:49:18;14.20;99.90
25877;DHT22;13692;47.480;19.216;2024-03-22T06:51:44;14.50;99.90
25877;DHT22;13692;47.480;19.216;2024-03-22T06:54:10;14.70;99.90
25877;DHT22;13692;47.480;19.216;2024-03-22T06:56:35;15.10;99.90
25877;DHT22;13692;47.480;19.216;2024-03-22T06:59:01;15.40;99.90
25877;DHT22;13692;47.480;19.216;2024-03-22T07:01:27;15.50;99.90
25877;DHT22;13692;47.480;19.216;2024-03-22T07:03:53;15.70;99.90
25877;DHT22;13692;47.480;19.216;2024-03-22T07:06:19;15.80;99.90
25877;DHT22;13692;47.480;19.216;2024-03-22T07:08:46;15.80;99.90
25877;DHT22;13692;47.480;19.216;2024-03-22T07:11:12;15.80;99.90
25877;DHT22;13692;47.480;19.216;2024-03-22T07:13:38;15.80;99.90
25877;DHT22;13692;47.480;19.216;2024-03-22T07:16:04;15.80;99.90
25877;DHT22;13692;47.480;19.216;2024-03-22T07:18:30;15.70;99.90
25877;DHT22;13692;47.480;19.216;2024-03-22T07:20:56;15.70;99.90
25877;DHT22;13692;47.480;19.216;2024-03-22T07:23:23;15.60;99.90
25877;DHT22;13692;47.480;19.216;2024-03-22T07:25:49;15.50;99.90
25877;DHT22;13692;47.480;19.216;2024-03-22T07:28:15;15.40;99.90
25877;DHT22;13692;47.480;19.216;2024-03-22T07:30:42;15.30;99.90
25877;DHT22;13692;47.480;19.216;2024-03-22T07:33:09;15.20;99.90
25877;DHT22;13692;47.480;19.216;2024-03-22T07:35:35;15.20;99.90
25877;DHT22;13692;47.480;19.216;2024-03-22T07:38:01;15.20;99.90
25877;DHT22;13692;47.480;19.216;2024-03-22T07:40:27;15.30;99.90
25877;DHT22;13692;47.480;19.216;2024-03-22T07:42:53;15.30;99.90
25877;DHT22;13692;47.480;19.216;2024-03-22T07:45:19;15.30;99.90
25877;DHT22;13692;47.480;19.216;2024-03-22T07:47:45;15.30;99.90
25877;DHT22;13692;47.480;19.216;2024-03-22T07:50:11;15.30;99.90
25877;DHT22;13692;47.480;19.216;2024-03-22T07:52:37;15.20;99.90
25877;DHT22;13692;47.480;19.216;2024-03-22T07:55:03;15.20;99.90
25877;DHT22;13692;47.480;19.216;2024-03-22T07:57:29;15.20;99.90
25877;DHT22;13692;47.480;19.216;2024-03-22T07:59:58;15.20;99.90
25877;DHT22;13692;47.480;19.216;2024-03-22T08:02:24;15.20;99.90
25877;DHT22;13692;47.480;19.216;2024-03-22T08:04:50;15.20;99.90
25877;DHT22;13692;47.480;19.216;2024-03-22T08:07:16;15.10;99.90
25877;DHT22;13692;47.480;19.216;2024-03-22T08:09:42;15.10;99.90
25877;DHT22;13692;47.480;19.216;2024-03-22T08:12:08;15.00;99.90
25877;DHT22;13692;47.480;19.216;2024-03-22T08:14:34;15.00;99.90
25877;DHT22;13692;47.480;19.216;2024-03-22T08:17:00;14.90;99.90
25877;DHT22;13692;47.480;19.216;2024-03-22T08:19:26;14.90;99.90
25877;DHT22;13692;47.480;19.216;2024-03-22T08:21:52;14.90;99.90
25877;DHT22;13692;47.480;19.216;2024-03-22T08:24:19;15.00;99.90
25877;DHT22;13692;47.480;19.216;2024-03-22T08:26:45;15.00;99.90
25877;DHT22;13692;47.480;19.216;2024-03-22T08:29:13;15.00;99.90
25877;DHT22;13692;47.480;19.216;2024-03-22T08:31:40;15.10;99.90
25877;DHT22;13692;47.480;19.216;2024-03-22T08:34:08;15.20;99.90
25877;DHT22;13692;47.480;19.216;2024-03-22T08:36:34;15.30;99.90
25877;DHT22;13692;47.480;19.216;2024-03-22T08:39:00;15.30;99.90
25877;DHT22;13692;47.480;19.216;2024-03-22T08:41:26;15.40;99.90
25877;DHT22;13692;47.480;19.216;2024-03-22T08:43:52;15.40;99.90
25877;DHT22;13692;47.480;19.216;2024-03-22T08:46:18;15.50;99.90
25877;DHT22;13692;47.480;19.216;2024-03-22T08:48:44;15.60;99.90
25877;DHT22;13692;47.480;19.216;2024-03-22T08:51:09;15.60;99.90
25877;DHT22;13692;47.480;19.216;2024-03-22T08:53:35;15.70;99.90
25877;DHT22;13692;47.480;19.216;2024-03-22T08:56:01;15.80;99.90
25877;DHT22;13692;47.480;19.216;2024-03-22T08:58:27;16.00;99.90
25877;DHT22;13692;47.480;19.216;2024-03-22T09:00:53;16.10;99.90
25877;DHT22;13692;47.480;19.216;2024-03-22T09:03:20;16.30;99.90
25877;DHT22;13692;47.480;19.216;2024-03-22T09:05:47;16.30;99.90
25877;DHT22;13692;47.480;19.216;2024-03-22T09:08:13;16.40;99.90
25877;DHT22;13692;47.480;19.216;2024-03-22T09:10:39;16.50;99.90
25877;DHT22;13692;47.480;19.216;2024-03-22T09:13:05;16.60;99.90
25877;DHT22;13692;47.480;19.216;2024-03-22T09:15:30;16.70;99.90
25877;DHT22;13692;47.480;19.216;2024-03-22T09:17:56;16.80;99.90
25877;DHT22;13692;47.480;19.216;2024-03-22T09:20:22;17.20;99.90
25877;DHT22;13692;47.480;19.216;2024-03-22T09:22:48;17.60;99.90
25877;DHT22;13692;47.480;19.216;2024-03-22T09:25:14;18.10;99.90
25877;DHT22;13692;47.480;19.216;2024-03-22T09:27:40;18.40;99.90
25877;DHT22;13692;47.480;19.216;2024-03-22T09:30:08;18.70;99.90
25877;DHT22;13692;47.480;19.216;2024-03-22T09:32:35;19.00;99.90
25877;DHT22;13692;47.480;19.216;2024-03-22T09:35:01;19.30;99.90
25877;DHT22;13692;47.480;19.216;2024-03-22T09:37:27;19.40;99.90
25877;DHT22;13692;47.480;19.216;2024-03-22T09:39:53;19.40;99.90
25877;DHT22;13692;47.480;19.216;2024-03-22T09:42:22;19.50;99.90
25877;DHT22;13692;47.480;19.216;2024-03-22T09:44:49;19.50;99.90
25877;DHT22;13692;47.480;19.216;2024-03-22T09:47:17;19.60;99.90
25877;DHT22;13692;47.480;19.216;2024-03-22T09:49:44;19.60;99.80
25877;DHT22;13692;47.480;19.216;2024-03-22T09:52:16;19.60;99.10
25877;DHT22;13692;47.480;19.216;2024-03-22T09:54:45;19.60;99.20
25877;DHT22;13692;47.480;19.216;2024-03-22T09:57:15;19.60;99.00
25877;DHT22;13692;47.480;19.216;2024-03-22T09:59:45;19.70;99.30
25877;DHT22;13692;47.480;19.216;2024-03-22T10:02:12;19.80;99.10
25877;DHT22;13692;47.480;19.216;2024-03-22T10:04:42;19.90;99.00
25877;DHT22;13692;47.480;19.216;2024-03-22T10:07:09;20.00;99.00
25877;DHT22;13692;47.480;19.216;2024-03-22T10:09:36;20.10;98.40
25877;DHT22;13692;47.480;19.216;2024-03-22T10:12:03;20.20;97.90
25877;DHT22;13692;47.480;19.216;2024-03-22T10:14:30;20.30;97.80
25877;DHT22;13692;47.480;19.216;2024-03-22T10:16:57;20.40;97.70
25877;DHT22;13692;47.480;19.216;2024-03-22T10:19:24;20.30;97.50
25877;DHT22;13692;47.480;19.216;2024-03-22T10:22:03;20.40;97.90
25877;DHT22;13692;47.480;19.216;2024-03-22T10:24:30;20.50;97.20
25877;DHT22;13692;47.480;19.216;2024-03-22T10:26:56;20.50;96.70
25877;DHT22;13692;47.480;19.216;2024-03-22T10:29:22;20.40;96.40
25877;DHT22;13692;47.480;19.216;2024-03-22T10:31:50;20.30;96.30
25877;DHT22;13692;47.480;19.216;2024-03-22T10:34:17;20.10;96.30
25877;DHT22;13692;47.480;19.216;2024-03-22T10:36:44;20.00;96.40
25877;DHT22;13692;47.480;19.216;2024-03-22T10:39:15;20.10;96.40
25877;DHT22;13692;47.480;19.216;2024-03-22T10:41:43;20.20;96.20
25877;DHT22;13692;47.480;19.216;2024-03-22T10:44:09;20.20;96.10
25877;DHT22;13692;47.480;19.216;2024-03-22T10:46:35;20.30;96.30
25877;DHT22;13692;47.480;19.216;2024-03-22T10:49:02;20.40;95.10
25877;DHT22;13692;47.480;19.216;2024-03-22T10:51:33;20.40;94.80
25877;DHT22;13692;47.480;19.216;2024-03-22T10:54:02;20.30;94.30
25877;DHT22;13692;47.480;19.216;2024-03-22T10:56:29;20.20;94.50
25877;DHT22;13692;47.480;19.216;2024-03-22T10:58:56;20.00;94.90
25877;DHT22;13692;47.480;19.216;2024-03-22T11:01:23;19.80;95.10
25877;DHT22;13692;47.480;19.216;2024-03-22T11:03:49;19.80;95.40
25877;DHT22;13692;47.480;19.216;2024-03-22T11:06:19;19.70;95.40
25877;DHT22;13692;47.480;19.216;2024-03-22T11:08:50;19.60;95.90
25877;DHT22;13692;47.480;19.216;2024-03-22T11:11:22;19.60;96.30
25877;DHT22;13692;47.480;19.216;2024-03-22T11:13:48;19.60;96.40
25877;DHT22;13692;47.480;19.216;2024-03-22T11:16:14;19.60;96.60
25877;DHT22;13692;47.480;19.216;2024-03-22T11:18:41;19.70;96.50
25877;DHT22;13692;47.480;19.216;2024-03-22T11:21:07;19.70;96.40
25877;DHT22;13692;47.480;19.216;2024-03-22T11:23:37;19.70;96.40
25877;DHT22;13692;47.480;19.216;2024-03-22T11:26:03;19.60;96.10
25877;DHT22;13692;47.480;19.216;2024-03-22T11:28:32;19.60;95.90
25877;DHT22;13692;47.480;19.216;2024-03-22T11:30:58;19.60;95.70
25877;DHT22;13692;47.480;19.216;2024-03-22T11:33:24;19.60;95.70
25877;DHT22;13692;47.480;19.216;2024-03-22T11:35:53;19.50;93.50
25877;DHT22;13692;47.480;19.216;2024-03-22T11:38:19;19.60;93.60
25877;DHT22;13692;47.480;19.216;2024-03-22T11:40:45;19.60;85.30
25877;DHT22;13692;47.480;19.216;2024-03-22T11:43:12;19.70;86.10
25877;DHT22;13692;47.480;19.216;2024-03-22T11:45:41;19.80;79.90
25877;DHT22;13692;47.480;19.216;2024-03-22T11:48:09;19.80;79.80
25877;DHT22;13692;47.480;19.216;2024-03-22T11:50:39;19.80;84.10
25877;DHT22;13692;47.480;19.216;2024-03-22T11:53:05;19.80;85.60
25877;DHT22;13692;47.480;19.216;2024-03-22T11:55:32;19.90;83.30
25877;DHT22;13692;47.480;19.216;2024-03-22T11:57:58;19.90;80.40
25877;DHT22;13692;47.480;19.216;2024-03-22T12:00:24;19.90;78.70
25877;DHT22;13692;47.480;19.216;2024-03-22T12:02:52;20.00;80.50
25877;DHT22;13692;47.480;19.216;2024-03-22T12:05:18;20.10;78.60
25877;DHT22;13692;47.480;19.216;2024-03-22T12:07:44;20.10;79.30
25877;DHT22;13692;47.480;19.216;2024-03-22T12:10:10;20.00;77.60
25877;DHT22;13692;47.480;19.216;2024-03-22T12:12:36;19.90;77.60
25877;DHT22;13692;47.480;19.216;2024-03-22T12:15:03;19.90;81.90
25877;DHT22;13692;47.480;19.216;2024-03-22T12:17:29;19.80;83.60
25877;DHT22;13692;47.480;19.216;2024-03-22T12:19:55;19.80;84.90
25877;DHT22;13692;47.480;19.216;2024-03-22T12:22:24;19.80;85.30
25877;DHT22;13692;47.480;19.216;2024-03-22T12:24:51;19.80;85.80
25877;DHT22;13692;47.480;19.216;2024-03-22T12:27:17;19.80;86.10
25877;DHT22;13692;47.480;19.216;2024-03-22T12:29:43;19.80;86.10
25877;DHT22;13692;47.480;19.216;2024-03-22T12:32:09;19.70;86.40
25877;DHT22;13692;47.480;19.216;2024-03-22T12:34:36;19.70;87.40
25877;DHT22;13692;47.480;19.216;2024-03-22T12:37:02;19.80;87.20
25877;DHT22;13692;47.480;19.216;2024-03-22T12:39:28;19.80;87.30
25877;DHT22;13692;47.480;19.216;2024-03-22T12:41:54;19.80;88.00
25877;DHT22;13692;47.480;19.216;2024-03-22T12:44:21;19.80;88.70
25877;DHT22;13692;47.480;19.216;2024-03-22T12:46:47;19.70;89.00
25877;DHT22;13692;47.480;19.216;2024-03-22T12:49:13;19.60;89.70
25877;DHT22;13692;47.480;19.216;2024-03-22T12:51:39;19.40;89.90
25877;DHT22;13692;47.480;19.216;2024-03-22T12:54:05;19.40;89.50
25877;DHT22;13692;47.480;19.216;2024-03-22T12:56:31;19.40;90.00
25877;DHT22;13692;47.480;19.216;2024-03-22T12:58:58;19.50;90.30
25877;DHT22;13692;47.480;19.216;2024-03-22T13:01:24;19.50;90.00
25877;DHT22;13692;47.480;19.216;2024-03-22T13:03:51;19.50;90.20
25877;DHT22;13692;47.480;19.216;2024-03-22T13:06:16;19.40;90.30
25877;DHT22;13692;47.480;19.216;2024-03-22T13:08:42;19.40;90.80
25877;DHT22;13692;47.480;19.216;2024-03-22T13:11:08;19.40;91.00
25877;DHT22;13692;47.480;19.216;2024-03-22T13:13:35;19.40;91.00
25877;DHT22;13692;47.480;19.216;2024-03-22T13:16:01;19.30;91.20
25877;DHT22;13692;47.480;19.216;2024-03-22T13:18:29;19.30;90.10
25877;DHT22;13692;47.480;19.216;2024-03-22T13:20:55;19.20;90.10
25877;DHT22;13692;47.480;19.216;2024-03-22T13:23:21;19.20;90.50
25877;DHT22;13692;47.480;19.216;2024-03-22T13:25:47;19.20;90.50
25877;DHT22;13692;47.480;19.216;2024-03-22T13:28:13;19.20;90.60
25877;DHT22;13692;47.480;19.216;2024-03-22T13:30:39;19.10;90.40
25877;DHT22;13692;47.480;19.216;2024-03-22T13:33:05;19.10;90.50
25877;DHT22;13692;47.480;19.216;2024-03-22T13:35:34;19.00;90.40
25877;DHT22;13692;47.480;19.216;2024-03-22T13:38:00;18.90;90.70
25877;DHT22;13692;47.480;19.216;2024-03-22T13:40:26;18.90;90.70
25877;DHT22;13692;47.480;19.216;2024-03-22T13:42:55;18.80;90.90
25877;DHT22;13692;47.480;19.216;2024-03-22T13:45:21;18.80;91.30
25877;DHT22;13692;47.480;19.216;2024-03-22T13:47:47;18.80;91.40
25877;DHT22;13692;47.480;19.216;2024-03-22T13:50:13;18.90;91.50
25877;DHT22;13692;47.480;19.216;2024-03-22T13:52:39;18.90;90.90
25877;DHT22;13692;47.480;19.216;2024-03-22T13:55:05;18.90;91.40
25877;DHT22;13692;47.480;19.216;2024-03-22T13:57:31;18.80;91.20
25877;DHT22;13692;47.480;19.216;2024-03-22T13:59:59;18.70;91.30
25877;DHT22;13692;47.480;19.216;2024-03-22T14:02:25;18.60;91.30
25877;DHT22;13692;47.480;19.216;2024-03-22T14:04:50;18.60;91.80
25877;DHT22;13692;47.480;19.216;2024-03-22T14:07:18;18.60;91.70
25877;DHT22;13692;47.480;19.216;2024-03-22T14:09:43;18.50;91.90
25877;DHT22;13692;47.480;19.216;2024-03-22T14:12:11;18.40;91.80
25877;DHT22;13692;47.480;19.216;2024-03-22T14:14:37;18.40;92.00
25877;DHT22;13692;47.480;19.216;2024-03-22T14:17:03;18.40;92.00
25877;DHT22;13692;47.480;19.216;2024-03-22T14:19:29;18.30;91.90
25877;DHT22;13692;47.480;19.216;2024-03-22T14:21:55;18.20;91.90
25877;DHT22;13692;47.480;19.216;2024-03-22T14:24:21;18.20;91.90
25877;DHT22;13692;47.480;19.216;2024-03-22T14:26:46;18.20;91.80
25877;DHT22;13692;47.480;19.216;2024-03-22T14:29:12;18.20;91.90
25877;DHT22;13692;47.480;19.216;2024-03-22T14:31:39;18.20;92.20
25877;DHT22;13692;47.480;19.216;2024-03-22T14:34:06;18.20;92.40
25877;DHT22;13692;47.480;19.216;2024-03-22T14:36:32;18.20;92.30
25877;DHT22;13692;47.480;19.216;2024-03-22T14:38:59;18.10;92.40
25877;DHT22;13692;47.480;19.216;2024-03-22T14:41:25;18.10;92.20
25877;DHT22;13692;47.480;19.216;2024-03-22T14:43:51;18.10;92.20
25877;DHT22;13692;47.480;19.216;2024-03-22T14:46:17;18.10;92.00
25877;DHT22;13692;47.480;19.216;2024-03-22T14:48:50;18.00;91.80
25877;DHT22;13692;47.480;19.216;2024-03-22T14:51:16;17.90;91.80
25877;DHT22;13692;47.480;19.216;2024-03-22T14:53:42;17.90;91.90
25877;DHT22;13692;47.480;19.216;2024-03-22T14:56:08;17.80;91.90
25877;DHT22;13692;47.480;19.216;2024-03-22T14:58:35;17.70;92.00
25877;DHT22;13692;47.480;19.216;2024-03-22T15:01:02;17.80;92.00
25877;DHT22;13692;47.480;19.216;2024-03-22T15:03:28;17.70;91.50
25877;DHT22;13692;47.480;19.216;2024-03-22T15:05:56;17.70;91.70
25877;DHT22;13692;47.480;19.216;2024-03-22T15:08:22;17.70;92.00
25877;DHT22;13692;47.480;19.216;2024-03-22T15:10:48;17.60;92.10
25877;DHT22;13692;47.480;19.216;2024-03-22T15:13:16;17.60;92.20
25877;DHT22;13692;47.480;19.216;2024-03-22T15:15:43;17.60;92.30
25877;DHT22;13692;47.480;19.216;2024-03-22T15:18:17;17.60;92.50